sensor_id;sensor_type;location;lat;lon;timestamp;temperature;humidity
19200;DHT22;9732;52.498;5.408;2023-04-24T00:01:17;11.80;99.90
19200;DHT22;9732;52.498;5.408;2023-04-24T00:03:45;11.80;99.90
19200;DHT22;9732;52.498;5.408;2023-04-24T00:06:12;11.80;99.90
19200;DHT22;9732;52.498;5.408;2023-04-24T00:08:43;11.70;99.90
19200;DHT22;9732;52.498;5.408;2023-04-24T00:11:11;11.80;99.90
19200;DHT22;9732;52.498;5.408;2023-04-24T00:13:39;11.60;99.90
19200;DHT22;9732;52.498;5.408;2023-04-24T00:16:06;11.60;99.90
19200;DHT22;9732;52.498;5.408;2023-04-24T00:18:33;11.70;99.90
19200;DHT22;9732;52.498;5.408;2023-04-24T00:21:01;11.60;99.90
19200;DHT22;9732;52.498;5.408;2023-04-24T00:23:29;11.70;99.90
19200;DHT22;9732;52.498;5.408;2023-04-24T00:25:58;11.70;99.90
19200;DHT22;9732;52.498;5.408;2023-04-24T00:28:25;11.60;99.90
19200;DHT22;9732;52.498;5.408;2023-04-24T00:30:52;11.70;99.90
19200;DHT22;9732;52.498;5.408;2023-04-24T00:33:20;11.70;99.90
19200;DHT22;9732;52.498;5.408;2023-04-24T00:35:47;11.80;99.90
19200;DHT22;9732;52.498;5.408;2023-04-24T00:38:14;11.80;99.90
19200;DHT22;9732;52.498;5.408;2023-04-24T00:40:41;11.80;99.90
19200;DHT22;9732;52.498;5.408;2023-04-24T00:43:09;11.80;99.90
19200;DHT22;9732;52.498;5.408;2023-04-24T00:45:36;11.90;99.90
19200;DHT22;9732;52.498;5.408;2023-04-24T00:48:04;11.90;99.90
19200;DHT22;9732;52.498;5.408;2023-04-24T00:50:32;11.90;99.90
19200;DHT22;9732;52.498;5.408;2023-04-24T00:52:59;11.90;99.90
19200;DHT22;9732;52.498;5.408;2023-04-24T00:55:26;11.80;99.90
19200;DHT22;9732;52.498;5.408;2023-04-24T00:57:53;11.80;99.90
19200;DHT22;9732;52.498;5.408;2023-04-24T01:00:22;11.80;99.90
19200;DHT22;9732;52.498;5.408;2023-04-24T01:02:49;11.80;99.90
19200;DHT22;9732;52.498;5.408;2023-04-24T01:05:17;11.60;99.90
19200;DHT22;9732;52.498;5.408;2023-04-24T01:07:45;11.60;99.90
19200;DHT22;9732;52.498;5.408;2023-04-24T01:10:15;11.60;99.90
19200;DHT22;9732;52.498;5.408;2023-04-24T01:12:43;11.70;99.90
19200;DHT22;9732;52.498;5.408;2023-04-24T01:15:10;11.60;99.90
19200;DHT22;9732;52.498;5.408;2023-04-24T01:17:39;11.60;99.90
19200;DHT22;9732;52.498;5.408;2023-04-24T01:20:07;11.60;99.90
19200;DHT22;9732;52.498;5.408;2023-04-24T01:22:36;11.70;99.90
19200;DHT22;9732;52.498;5.408;2023-04-24T01:25:04;11.70;99.90
19200;DHT22;9732;52.498;5.408;2023-04-24T01:27:32;11.60;99.90
19200;DHT22;9732;52.498;5.408;2023-04-24T01:29:59;11.60;99.90
19200;DHT22;9732;52.498;5.408;2023-04-24T01:32:27;11.50;99.90
19200;DHT22;9732;52.498;5.408;2023-04-24T01:34:55;11.40;99.90
19200;DHT22;9732;52.498;5.408;2023-04-24T01:37:22;11.40;99.90
19200;DHT22;9732;52.498;5.408;2023-04-24T01:39:51;11.40;99.90
19200;DHT22;9732;52.498;5.408;2023-04-24T01:42:18;11.40;99.90
19200;DHT22;9732;52.498;5.408;2023-04-24T01:44:46;11.30;99.90
19200;DHT22;9732;52.498;5.408;2023-04-24T01:47:14;11.20;99.90
19200;DHT22;9732;52.498;5.408;2023-04-24T01:49:41;11.10;99.90
19200;DHT22;9732;52.498;5.408;2023-04-24T01:52:08;11.00;99.90
19200;DHT22;9732;52.498;5.408;2023-04-24T01:54:35;11.00;99.90
19200;DHT22;9732;52.498;5.408;2023-04-24T01:57:03;11.00;99.90
19200;DHT22;9732;52.498;5.408;2023-04-24T01:59:31;10.90;99.90
19200;DHT22;9732;52.498;5.408;2023-04-24T02:02:00;10.90;99.90
19200;DHT22;9732;52.498;5.408;2023-04-24T02:04:28;10.90;99.90
19200;DHT22;9732;52.498;5.408;2023-04-24T02:06:55;10.90;99.90
19200;DHT22;9732;52.498;5.408;2023-04-24T02:09:23;10.80;99.90
19200;DHT22;9732;52.498;5.408;2023-04-24T02:11:50;10.70;99.90
19200;DHT22;9732;52.498;5.408;2023-04-24T02:14:19;10.60;99.90
19200;DHT22;9732;52.498;5.408;2023-04-24T02:16:46;10.70;99.90
19200;DHT22;9732;52.498;5.408;2023-04-24T02:19:13;10.70;99.90
19200;DHT22;9732;52.498;5.408;2023-04-24T02:21:41;10.70;99.90
19200;DHT22;9732;52.498;5.408;2023-04-24T02:24:08;10.80;99.90
19200;DHT22;9732;52.498;5.408;2023-04-24T02:26:36;10.80;99.90
19200;DHT22;9732;52.498;5.408;2023-04-24T02:29:03;10.70;99.90
19200;DHT22;9732;52.498;5.408;2023-04-24T02:31:31;10.60;99.90
19200;DHT22;9732;52.498;5.408;2023-04-24T02:34:00;10.60;99.90
19200;DHT22;9732;52.498;5.408;2023-04-24T02:36:27;10.50;99.90
19200;DHT22;9732;52.498;5.408;2023-04-24T02:38:55;10.20;99.90
19200;DHT22;9732;52.498;5.408;2023-04-24T02:41:22;10.20;99.90
19200;DHT22;9732;52.498;5.408;2023-04-24T02:43:49;10.20;99.90
19200;DHT22;9732;52.498;5.408;2023-04-24T02:46:16;10.10;99.90
19200;DHT22;9732;52.498;5.408;2023-04-24T02:48:45;10.00;99.90
19200;DHT22;9732;52.498;5.408;2023-04-24T02:51:14;10.00;99.90
19200;DHT22;9732;52.498;5.408;2023-04-24T02:53:41;10.10;99.90
19200;DHT22;9732;52.498;5.408;2023-04-24T02:56:08;10.10;99.90
19200;DHT22;9732;52.498;5.408;2023-04-24T02:58:37;10.10;99.90
19200;DHT22;9732;52.498;5.408;2023-04-24T03:01:04;10.10;99.90
19200;DHT22;9732;52.498;5.408;2023-04-24T03:03:31;10.20;99.90
19200;DHT22;9732;52.498;5.408;2023-04-24T03:05:59;10.20;99.90
19200;DHT22;9732;52.498;5.408;2023-04-24T03:08:26;10.20;99.90
19200;DHT22;9732;52.498;5.408;2023-04-24T03:10:53;10.20;99.90
19200;DHT22;9732;52.498;5.408;2023-04-24T03:13:19;10.20;99.90
19200;DHT22;9732;52.498;5.408;2023-04-24T03:15:47;10.30;99.90
19200;DHT22;9732;52.498;5.408;2023-04-24T03:18:15;10.30;99.90
19200;DHT22;9732;52.498;5.408;2023-04-24T03:20:42;10.40;99.90
19200;DHT22;9732;52.498;5.408;2023-04-24T03:23:10;10.40;99.90
19200;DHT22;9732;52.498;5.408;2023-04-24T03:25:37;10.40;99.90
19200;DHT22;9732;52.498;5.408;2023-04-24T03:28:04;10.40;99.90
19200;DHT22;9732;52.498;5.408;2023-04-24T03:30:31;10.40;99.90
19200;DHT22;9732;52.498;5.408;2023-04-24T03:32:58;10.40;99.90
19200;DHT22;9732;52.498;5.408;2023-04-24T03:35:26;10.50;99.90
19200;DHT22;9732;52.498;5.408;2023-04-24T03:37:53;10.50;99.90
19200;DHT22;9732;52.498;5.408;2023-04-24T03:40:22;10.50;99.90
19200;DHT22;9732;52.498;5.408;2023-04-24T03:42:49;10.50;99.90
19200;DHT22;9732;52.498;5.408;2023-04-24T03:45:15;10.50;99.90
19200;DHT22;9732;52.498;5.408;2023-04-24T03:47:42;10.60;99.90
19200;DHT22;9732;52.498;5.408;2023-04-24T03:50:09;10.60;99.90
19200;DHT22;9732;52.498;5.408;2023-04-24T03:52:37;10.60;99.90
19200;DHT22;9732;52.498;5.408;2023-04-24T03:55:04;10.50;99.90
19200;DHT22;9732;52.498;5.408;2023-04-24T03:57:34;10.50;99.90
19200;DHT22;9732;52.498;5.408;2023-04-24T04:00:01;10.50;99.90
19200;DHT22;9732;52.498;5.408;2023-04-24T04:02:30;10.50;99.90
19200;DHT22;9732;52.498;5.408;2023-04-24T04:04:56;10.50;99.90
19200;DHT22;9732;52.498;5.408;2023-04-24T04:07:23;10.50;99.90
19200;DHT22;9732;52.498;5.408;2023-04-24T04:09:50;10.50;99.90
19200;DHT22;9732;52.498;5.408;2023-04-24T04:12:18;10.40;99.90
19200;DHT22;9732;52.498;5.408;2023-04-24T04:14:46;10.50;99.90
19200;DHT22;9732;52.498;5.408;2023-04-24T04:17:14;10.50;99.90
19200;DHT22;9732;52.498;5.408;2023-04-24T04:19:41;10.40;99.90
19200;DHT22;9732;52.498;5.408;2023-04-24T04:22:08;10.60;99.90
19200;DHT22;9732;52.498;5.408;2023-04-24T04:24:35;10.50;99.90
19200;DHT22;9732;52.498;5.408;2023-04-24T04:27:03;10.60;99.90
19200;DHT22;9732;52.498;5.408;2023-04-24T04:29:30;10.60;99.90
19200;DHT22;9732;52.498;5.408;2023-04-24T04:31:59;10.60;99.90
19200;DHT22;9732;52.498;5.408;2023-04-24T04:34:27;10.60;99.90
19200;DHT22;9732;52.498;5.408;2023-04-24T04:36:54;10.60;99.90
19200;DHT22;9732;52.498;5.408;2023-04-24T04:39:21;10.60;99.90
19200;DHT22;9732;52.498;5.408;2023-04-24T04:41:49;10.60;99.90
19200;DHT22;9732;52.498;5.408;2023-04-24T04:44:16;10.50;99.90
19200;DHT22;9732;52.498;5.408;2023-04-24T04:46:42;10.60;99.90
19200;DHT22;9732;52.498;5.408;2023-04-24T04:49:12;10.60;99.90
19200;DHT22;9732;52.498;5.408;2023-04-24T04:51:38;10.60;99.90
19200;DHT22;9732;52.498;5.408;2023-04-24T04:54:05;10.70;99.90
19200;DHT22;9732;52.498;5.408;2023-04-24T04:56:33;10.70;99.90
19200;DHT22;9732;52.498;5.408;2023-04-24T04:59:00;10.70;99.90
19200;DHT22;9732;52.498;5.408;2023-04-24T05:01:27;10.60;99.90
19200;DHT22;9732;52.498;5.408;2023-04-24T05:03:55;10.60;99.90
19200;DHT22;9732;52.498;5.408;2023-04-24T05:06:23;10.60;99.90
19200;DHT22;9732;52.498;5.408;2023-04-24T05:08:51;10.50;99.90
19200;DHT22;9732;52.498;5.408;2023-04-24T05:11:22;10.50;99.90
19200;DHT22;9732;52.498;5.408;2023-04-24T05:13:49;10.50;99.90
19200;DHT22;9732;52.498;5.408;2023-04-24T05:16:17;10.40;99.90
19200;DHT22;9732;52.498;5.408;2023-04-24T05:18:44;10.30;99.90
19200;DHT22;9732;52.498;5.408;2023-04-24T05:21:11;10.30;99.90
19200;DHT22;9732;52.498;5.408;2023-04-24T05:23:39;10.30;99.90
19200;DHT22;9732;52.498;5.408;2023-04-24T05:26:06;10.20;99.90
19200;DHT22;9732;52.498;5.408;2023-04-24T05:28:33;10.20;99.90
19200;DHT22;9732;52.498;5.408;2023-04-24T05:31:02;10.20;99.90
19200;DHT22;9732;52.498;5.408;2023-04-24T05:33:28;10.10;99.90
19200;DHT22;9732;52.498;5.408;2023-04-24T05:35:55;10.20;99.90
19200;DHT22;9732;52.498;5.408;2023-04-24T05:38:22;10.20;99.90
19200;DHT22;9732;52.498;5.408;2023-04-24T05:40:50;10.10;99.90
19200;DHT22;9732;52.498;5.408;2023-04-24T05:43:16;10.10;99.90
19200;DHT22;9732;52.498;5.408;2023-04-24T05:45:43;10.10;99.90
19200;DHT22;9732;52.498;5.408;2023-04-24T05:48:10;10.20;99.90
19200;DHT22;9732;52.498;5.408;2023-04-24T05:50:37;10.10;99.90
19200;DHT22;9732;52.498;5.408;2023-04-24T05:53:03;10.10;99.90
19200;DHT22;9732;52.498;5.408;2023-04-24T05:55:32;10.10;99.90
19200;DHT22;9732;52.498;5.408;2023-04-24T05:58:00;10.10;99.90
19200;DHT22;9732;52.498;5.408;2023-04-24T06:00:27;10.20;99.90
19200;DHT22;9732;52.498;5.408;2023-04-24T06:02:54;10.20;99.90
19200;DHT22;9732;52.498;5.408;2023-04-24T06:05:20;10.20;99.90
19200;DHT22;9732;52.498;5.408;2023-04-24T06:07:47;10.20;99.90
19200;DHT22;9732;52.498;5.408;2023-04-24T06:10:14;10.10;99.90
19200;DHT22;9732;52.498;5.408;2023-04-24T06:12:41;10.10;99.90
19200;DHT22;9732;52.498;5.408;2023-04-24T06:15:10;10.00;99.90
19200;DHT22;9732;52.498;5.408;2023-04-24T06:17:37;9.90;99.90
19200;DHT22;9732;52.498;5.408;2023-04-24T06:20:04;9.80;99.90
19200;DHT22;9732;52.498;5.408;2023-04-24T06:22:32;9.70;99.90
19200;DHT22;9732;52.498;5.408;2023-04-24T06:24:59;9.70;99.90
19200;DHT22;9732;52.498;5.408;2023-04-24T06:27:26;9.60;99.90
19200;DHT22;9732;52.498;5.408;2023-04-24T06:29:53;9.50;99.90
19200;DHT22;9732;52.498;5.408;2023-04-24T06:32:24;9.50;99.90
19200;DHT22;9732;52.498;5.408;2023-04-24T06:34:53;9.50;99.90
19200;DHT22;9732;52.498;5.408;2023-04-24T06:37:20;9.50;99.90
19200;DHT22;9732;52.498;5.408;2023-04-24T06:39:47;9.50;99.90
19200;DHT22;9732;52.498;5.408;2023-04-24T06:42:14;9.40;99.90
19200;DHT22;9732;52.498;5.408;2023-04-24T06:44:41;9.50;99.90
19200;DHT22;9732;52.498;5.408;2023-04-24T06:47:08;9.50;99.90
19200;DHT22;9732;52.498;5.408;2023-04-24T06:49:36;9.50;99.90
19200;DHT22;9732;52.498;5.408;2023-04-24T06:52:03;9.50;99.90
19200;DHT22;9732;52.498;5.408;2023-04-24T06:54:31;9.40;99.90
19200;DHT22;9732;52.498;5.408;2023-04-24T06:56:57;9.40;99.90
19200;DHT22;9732;52.498;5.408;2023-04-24T06:59:26;9.40;99.90
19200;DHT22;9732;52.498;5.408;2023-04-24T07:01:53;9.40;99.90
19200;DHT22;9732;52.498;5.408;2023-04-24T07:04:19;9.40;99.90
19200;DHT22;9732;52.498;5.408;2023-04-24T07:06:48;9.40;99.90
19200;DHT22;9732;52.498;5.408;2023-04-24T07:09:16;9.40;99.90
19200;DHT22;9732;52.498;5.408;2023-04-24T07:11:44;9.40;99.90
19200;DHT22;9732;52.498;5.408;2023-04-24T07:14:10;9.40;99.90
19200;DHT22;9732;52.498;5.408;2023-04-24T07:16:37;9.50;99.90
19200;DHT22;9732;52.498;5.408;2023-04-24T07:19:04;9.50;99.90
19200;DHT22;9732;52.498;5.408;2023-04-24T07:21:31;9.40;99.90
19200;DHT22;9732;52.498;5.408;2023-04-24T07:23:59;9.50;99.90
19200;DHT22;9732;52.498;5.408;2023-04-24T07:26:26;9.50;99.90
19200;DHT22;9732;52.498;5.408;2023-04-24T07:28:53;9.50;99.90
19200;DHT22;9732;52.498;5.408;2023-04-24T07:31:20;9.50;99.90
19200;DHT22;9732;52.498;5.408;2023-04-24T07:33:47;9.50;99.90
19200;DHT22;9732;52.498;5.408;2023-04-24T07:36:14;9.50;99.90
19200;DHT22;9732;52.498;5.408;2023-04-24T07:38:44;9.50;99.90
19200;DHT22;9732;52.498;5.408;2023-04-24T07:41:12;9.50;99.90
19200;DHT22;9732;52.498;5.408;2023-04-24T07:43:39;9.50;99.90
19200;DHT22;9732;52.498;5.408;2023-04-24T07:46:06;9.50;99.90
19200;DHT22;9732;52.498;5.408;2023-04-24T07:48:33;9.60;99.90
19200;DHT22;9732;52.498;5.408;2023-04-24T07:51:00;9.60;99.90
19200;DHT22;9732;52.498;5.408;2023-04-24T07:53:26;9.60;99.90
19200;DHT22;9732;52.498;5.408;2023-04-24T07:55:54;9.70;99.90
19200;DHT22;9732;52.498;5.408;2023-04-24T07:58:22;9.70;99.90
19200;DHT22;9732;52.498;5.408;2023-04-24T08:00:49;9.70;99.90
19200;DHT22;9732;52.498;5.408;2023-04-24T08:03:16;9.70;99.90
19200;DHT22;9732;52.498;5.408;2023-04-24T08:05:44;9.70;99.90
19200;DHT22;9732;52.498;5.408;2023-04-24T08:08:11;9.80;99.90
19200;DHT22;9732;52.498;5.408;2023-04-24T08:10:38;9.80;99.90
19200;DHT22;9732;52.498;5.408;2023-04-24T08:13:05;9.80;99.90
19200;DHT22;9732;52.498;5.408;2023-04-24T08:15:33;9.80;99.90
19200;DHT22;9732;52.498;5.408;2023-04-24T08:18:00;9.80;99.90
19200;DHT22;9732;52.498;5.408;2023-04-24T08:20:26;9.70;99.90
19200;DHT22;9732;52.498;5.408;2023-04-24T08:22:53;9.70;99.90
19200;DHT22;9732;52.498;5.408;2023-04-24T08:25:20;9.70;99.90
19200;DHT22;9732;52.498;5.408;2023-04-24T08:27:48;9.70;99.90
19200;DHT22;9732;52.498;5.408;2023-04-24T08:30:15;9.80;99.90
19200;DHT22;9732;52.498;5.408;2023-04-24T08:32:43;9.70;99.90
19200;DHT22;9732;52.498;5.408;2023-04-24T08:35:10;9.60;99.90
19200;DHT22;9732;52.498;5.408;2023-04-24T08:37:37;9.60;99.90
19200;DHT22;9732;52.498;5.408;2023-04-24T08:40:10;9.60;99.90
19200;DHT22;9732;52.498;5.408;2023-04-24T08:42:39;9.60;99.90
19200;DHT22;9732;52.498;5.408;2023-04-24T08:45:10;9.60;99.90
19200;DHT22;9732;52.498;5.408;2023-04-24T08:47:38;9.60;99.90
19200;DHT22;9732;52.498;5.408;2023-04-24T08:50:09;9.60;99.90
19200;DHT22;9732;52.498;5.408;2023-04-24T08:52:36;9.60;99.90
19200;DHT22;9732;52.498;5.408;2023-04-24T08:55:04;9.60;99.90
19200;DHT22;9732;52.498;5.408;2023-04-24T08:57:32;9.60;99.90
19200;DHT22;9732;52.498;5.408;2023-04-24T08:59:59;9.70;99.90
19200;DHT22;9732;52.498;5.408;2023-04-24T09:02:26;9.70;99.90
19200;DHT22;9732;52.498;5.408;2023-04-24T09:04:56;9.60;99.90
19200;DHT22;9732;52.498;5.408;2023-04-24T09:07:27;9.50;99.90
19200;DHT22;9732;52.498;5.408;2023-04-24T09:09:56;9.60;99.90
19200;DHT22;9732;52.498;5.408;2023-04-24T09:12:23;9.60;99.90
19200;DHT22;9732;52.498;5.408;2023-04-24T09:14:50;9.60;99.90
19200;DHT22;9732;52.498;5.408;2023-04-24T09:17:17;9.60;99.90
19200;DHT22;9732;52.498;5.408;2023-04-24T09:19:44;9.70;99.90
19200;DHT22;9732;52.498;5.408;2023-04-24T09:22:12;9.70;99.90
19200;DHT22;9732;52.498;5.408;2023-04-24T09:24:40;9.60;99.90
19200;DHT22;9732;52.498;5.408;2023-04-24T09:27:07;9.70;99.90
19200;DHT22;9732;52.498;5.408;2023-04-24T09:29:34;9.70;99.90
19200;DHT22;9732;52.498;5.408;2023-04-24T09:32:18;9.90;99.90
19200;DHT22;9732;52.498;5.408;2023-04-24T09:34:47;9.90;99.90
19200;DHT22;9732;52.498;5.408;2023-04-24T09:37:27;10.10;99.90
19200;DHT22;9732;52.498;5.408;2023-04-24T09:40:09;10.10;99.90
19200;DHT22;9732;52.498;5.408;2023-04-24T09:42:37;10.20;99.90
19200;DHT22;9732;52.498;5.408;2023-04-24T09:45:08;10.20;99.90
19200;DHT22;9732;52.498;5.408;2023-04-24T09:47:37;10.20;99.90
19200;DHT22;9732;52.498;5.408;2023-04-24T09:50:14;10.10;99.90
19200;DHT22;9732;52.498;5.408;2023-04-24T09:52:43;10.10;99.90
19200;DHT22;9732;52.498;5.408;2023-04-24T09:55:16;9.90;99.90
19200;DHT22;9732;52.498;5.408;2023-04-24T09:57:50;9.80;99.90
19200;DHT22;9732;52.498;5.408;2023-04-24T10:00:19;9.70;99.90
19200;DHT22;9732;52.498;5.408;2023-04-24T10:02:49;9.60;99.90
19200;DHT22;9732;52.498;5.408;2023-04-24T10:05:17;9.70;99.90
19200;DHT22;9732;52.498;5.408;2023-04-24T10:07:43;9.70;99.90
19200;DHT22;9732;52.498;5.408;2023-04-24T10:10:12;9.80;99.90
19200;DHT22;9732;52.498;5.408;2023-04-24T10:12:39;9.90;99.90
19200;DHT22;9732;52.498;5.408;2023-04-24T10:15:08;10.10;99.90
19200;DHT22;9732;52.498;5.408;2023-04-24T10:17:38;10.20;99.90
19200;DHT22;9732;52.498;5.408;2023-04-24T10:20:06;10.30;99.90
19200;DHT22;9732;52.498;5.408;2023-04-24T10:22:33;10.30;99.90
19200;DHT22;9732;52.498;5.408;2023-04-24T10:25:03;10.30;99.90
19200;DHT22;9732;52.498;5.408;2023-04-24T10:27:32;10.20;99.90
19200;DHT22;9732;52.498;5.408;2023-04-24T10:30:00;10.20;99.90
19200;DHT22;9732;52.498;5.408;2023-04-24T10:32:26;10.20;99.90
19200;DHT22;9732;52.498;5.408;2023-04-24T10:34:54;10.20;99.90
19200;DHT22;9732;52.498;5.408;2023-04-24T10:37:22;10.20;99.90
19200;DHT22;9732;52.498;5.408;2023-04-24T10:39:49;10.10;99.90
19200;DHT22;9732;52.498;5.408;2023-04-24T10:42:17;10.20;99.90
19200;DHT22;9732;52.498;5.408;2023-04-24T10:44:47;10.20;99.90
19200;DHT22;9732;52.498;5.408;2023-04-24T10:47:14;10.20;99.90
19200;DHT22;9732;52.498;5.408;2023-04-24T10:49:41;10.20;99.90
19200;DHT22;9732;52.498;5.408;2023-04-24T10:52:09;10.20;99.90
19200;DHT22;9732;52.498;5.408;2023-04-24T10:54:40;10.20;99.90
19200;DHT22;9732;52.498;5.408;2023-04-24T10:57:26;10.40;99.90
19200;DHT22;9732;52.498;5.408;2023-04-24T11:00:18;10.40;99.90
19200;DHT22;9732;52.498;5.408;2023-04-24T11:02:47;10.50;99.90
19200;DHT22;9732;52.498;5.408;2023-04-24T11:05:19;10.40;99.90
19200;DHT22;9732;52.498;5.408;2023-04-24T11:08:14;10.30;99.90
19200;DHT22;9732;52.498;5.408;2023-04-24T11:10:44;10.30;99.90
19200;DHT22;9732;52.498;5.408;2023-04-24T11:13:14;10.10;99.90
19200;DHT22;9732;52.498;5.408;2023-04-24T11:15:42;10.00;99.90
19200;DHT22;9732;52.498;5.408;2023-04-24T11:18:13;10.00;99.90
19200;DHT22;9732;52.498;5.408;2023-04-24T11:20:42;10.00;99.90
19200;DHT22;9732;52.498;5.408;2023-04-24T11:23:12;10.20;99.90
19200;DHT22;9732;52.498;5.408;2023-04-24T11:25:39;10.40;99.90
19200;DHT22;9732;52.498;5.408;2023-04-24T11:28:06;10.60;99.90
19200;DHT22;9732;52.498;5.408;2023-04-24T11:30:33;10.80;99.90
19200;DHT22;9732;52.498;5.408;2023-04-24T11:33:04;11.00;99.90
19200;DHT22;9732;52.498;5.408;2023-04-24T11:35:36;11.20;99.90
19200;DHT22;9732;52.498;5.408;2023-04-24T11:38:06;11.40;99.90
19200;DHT22;9732;52.498;5.408;2023-04-24T11:40:34;11.30;99.90
19200;DHT22;9732;52.498;5.408;2023-04-24T11:43:00;11.00;99.90
19200;DHT22;9732;52.498;5.408;2023-04-24T11:45:29;10.70;99.90
19200;DHT22;9732;52.498;5.408;2023-04-24T11:47:56;10.20;99.90
19200;DHT22;9732;52.498;5.408;2023-04-24T11:50:26;9.90;99.90
19200;DHT22;9732;52.498;5.408;2023-04-24T11:52:55;9.70;99.90
19200;DHT22;9732;52.498;5.408;2023-04-24T11:55:26;9.70;99.90
19200;DHT22;9732;52.498;5.408;2023-04-24T11:57:55;9.80;99.90
19200;DHT22;9732;52.498;5.408;2023-04-24T12:00:24;10.20;99.90
19200;DHT22;9732;52.498;5.408;2023-04-24T12:03:02;10.40;99.90
19200;DHT22;9732;52.498;5.408;2023-04-24T12:05:30;10.80;99.90
19200;DHT22;9732;52.498;5.408;2023-04-24T12:07:57;11.30;99.90
19200;DHT22;9732;52.498;5.408;2023-04-24T12:10:25;11.50;99.90
19200;DHT22;9732;52.498;5.408;2023-04-24T12:12:53;12.00;99.90
19200;DHT22;9732;52.498;5.408;2023-04-24T12:15:21;12.00;99.90
19200;DHT22;9732;52.498;5.408;2023-04-24T12:17:49;11.70;99.90
19200;DHT22;9732;52.498;5.408;2023-04-24T12:20:17;11.40;99.90
19200;DHT22;9732;52.498;5.408;2023-04-24T12:22:46;10.90;99.90
19200;DHT22;9732;52.498;5.408;2023-04-24T12:25:13;10.60;99.90
19200;DHT22;9732;52.498;5.408;2023-04-24T12:27:40;10.60;99.90
19200;DHT22;9732;52.498;5.408;2023-04-24T12:30:11;10.50;99.90
19200;DHT22;9732;52.498;5.408;2023-04-24T12:32:41;10.60;99.90
19200;DHT22;9732;52.498;5.408;2023-04-24T12:35:09;10.80;99.90
19200;DHT22;9732;52.498;5.408;2023-04-24T12:37:36;10.80;99.90
19200;DHT22;9732;52.498;5.408;2023-04-24T12:40:08;10.70;99.90
19200;DHT22;9732;52.498;5.408;2023-04-24T12:42:36;10.60;99.90
19200;DHT22;9732;52.498;5.408;2023-04-24T12:45:04;10.50;99.90
19200;DHT22;9732;52.498;5.408;2023-04-24T12:47:32;10.40;99.90
19200;DHT22;9732;52.498;5.408;2023-04-24T12:49:59;10.40;99.90
19200;DHT22;9732;52.498;5.408;2023-04-24T12:52:28;10.20;99.90
19200;DHT22;9732;52.498;5.408;2023-04-24T12:54:56;10.10;99.90
19200;DHT22;9732;52.498;5.408;2023-04-24T12:57:25;10.00;99.90
19200;DHT22;9732;52.498;5.408;2023-04-24T12:59:54;10.00;99.90
19200;DHT22;9732;52.498;5.408;2023-04-24T13:02:20;9.90;99.90
19200;DHT22;9732;52.498;5.408;2023-04-24T13:04:48;10.00;99.90
19200;DHT22;9732;52.498;5.408;2023-04-24T13:07:15;10.20;99.90
19200;DHT22;9732;52.498;5.408;2023-04-24T13:09:42;10.40;99.90
19200;DHT22;9732;52.498;5.408;2023-04-24T13:12:10;10.60;99.90
19200;DHT22;9732;52.498;5.408;2023-04-24T13:14:39;10.70;99.90
19200;DHT22;9732;52.498;5.408;2023-04-24T13:17:05;10.70;99.90
19200;DHT22;9732;52.498;5.408;2023-04-24T13:19:36;10.80;99.90
19200;DHT22;9732;52.498;5.408;2023-04-24T13:22:04;10.80;99.90
19200;DHT22;9732;52.498;5.408;2023-04-24T13:24:31;10.80;99.90
19200;DHT22;9732;52.498;5.408;2023-04-24T13:26:58;11.00;99.90
19200;DHT22;9732;52.498;5.408;2023-04-24T13:29:26;10.90;99.90
19200;DHT22;9732;52.498;5.408;2023-04-24T13:31:54;10.80;99.90
19200;DHT22;9732;52.498;5.408;2023-04-24T13:34:21;10.70;99.90
19200;DHT22;9732;52.498;5.408;2023-04-24T13:36:49;10.60;99.90
19200;DHT22;9732;52.498;5.408;2023-04-24T13:39:16;10.40;99.90
19200;DHT22;9732;52.498;5.408;2023-04-24T13:41:43;10.40;99.90
19200;DHT22;9732;52.498;5.408;2023-04-24T13:44:10;10.50;99.90
19200;DHT22;9732;52.498;5.408;2023-04-24T13:46:37;10.30;99.90
19200;DHT22;9732;52.498;5.408;2023-04-24T13:49:05;10.30;99.90
19200;DHT22;9732;52.498;5.408;2023-04-24T13:51:32;10.30;99.90
19200;DHT22;9732;52.498;5.408;2023-04-24T13:53:59;10.20;99.90
19200;DHT22;9732;52.498;5.408;2023-04-24T13:56:26;10.20;99.90
19200;DHT22;9732;52.498;5.408;2023-04-24T13:58:53;10.20;99.90
19200;DHT22;9732;52.498;5.408;2023-04-24T14:01:20;10.20;99.90
19200;DHT22;9732;52.498;5.408;2023-04-24T14:03:49;10.20;99.90
19200;DHT22;9732;52.498;5.408;2023-04-24T14:06:18;10.30;99.90
19200;DHT22;9732;52.498;5.408;2023-04-24T14:08:45;10.30;99.90
19200;DHT22;9732;52.498;5.408;2023-04-24T14:11:12;10.40;99.90
19200;DHT22;9732;52.498;5.408;2023-04-24T14:13:41;10.30;99.90
19200;DHT22;9732;52.498;5.408;2023-04-24T14:16:07;10.80;99.90
19200;DHT22;9732;52.498;5.408;2023-04-24T14:18:34;11.20;99.90
19200;DHT22;9732;52.498;5.408;2023-04-24T14:21:01;11.70;99.90
19200;DHT22;9732;52.498;5.408;2023-04-24T14:23:29;12.20;99.90
19200;DHT22;9732;52.498;5.408;2023-04-24T14:25:57;12.70;99.90
19200;DHT22;9732;52.498;5.408;2023-04-24T14:28:24;13.10;99.90
19200;DHT22;9732;52.498;5.408;2023-04-24T14:30:52;13.50;99.90
19200;DHT22;9732;52.498;5.408;2023-04-24T14:33:19;13.10;99.90
19200;DHT22;9732;52.498;5.408;2023-04-24T14:35:46;12.60;99.90
19200;DHT22;9732;52.498;5.408;2023-04-24T14:38:13;12.30;99.90
19200;DHT22;9732;52.498;5.408;2023-04-24T14:40:42;12.40;99.90
19200;DHT22;9732;52.498;5.408;2023-04-24T14:43:08;12.60;99.90
19200;DHT22;9732;52.498;5.408;2023-04-24T14:45:36;12.70;99.90
19200;DHT22;9732;52.498;5.408;2023-04-24T14:48:03;12.80;99.90
19200;DHT22;9732;52.498;5.408;2023-04-24T14:50:30;12.60;99.90
19200;DHT22;9732;52.498;5.408;2023-04-24T14:52:56;12.40;99.90
19200;DHT22;9732;52.498;5.408;2023-04-24T14:55:23;12.20;99.90
19200;DHT22;9732;52.498;5.408;2023-04-24T14:57:52;12.20;99.90
19200;DHT22;9732;52.498;5.408;2023-04-24T15:00:20;12.20;99.90
19200;DHT22;9732;52.498;5.408;2023-04-24T15:02:48;12.10;99.90
19200;DHT22;9732;52.498;5.408;2023-04-24T15:05:15;12.10;99.90
19200;DHT22;9732;52.498;5.408;2023-04-24T15:07:42;12.00;99.90
19200;DHT22;9732;52.498;5.408;2023-04-24T15:10:10;12.00;99.90
19200;DHT22;9732;52.498;5.408;2023-04-24T15:12:36;11.90;99.90
19200;DHT22;9732;52.498;5.408;2023-04-24T15:15:06;11.80;99.90
19200;DHT22;9732;52.498;5.408;2023-04-24T15:17:33;11.70;99.90
19200;DHT22;9732;52.498;5.408;2023-04-24T15:20:00;11.60;99.90
19200;DHT22;9732;52.498;5.408;2023-04-24T15:22:27;11.60;99.90
19200;DHT22;9732;52.498;5.408;2023-04-24T15:24:53;11.70;99.90
19200;DHT22;9732;52.498;5.408;2023-04-24T15:27:21;11.80;99.90
19200;DHT22;9732;52.498;5.408;2023-04-24T15:29:48;11.90;99.90
19200;DHT22;9732;52.498;5.408;2023-04-24T15:32:16;11.80;99.90
19200;DHT22;9732;52.498;5.408;2023-04-24T15:34:43;11.80;99.90
19200;DHT22;9732;52.498;5.408;2023-04-24T15:37:09;11.80;99.90
19200;DHT22;9732;52.498;5.408;2023-04-24T15:39:36;11.70;99.90
19200;DHT22;9732;52.498;5.408;2023-04-24T15:42:03;11.60;99.90
19200;DHT22;9732;52.498;5.408;2023-04-24T15:44:30;11.50;99.90
19200;DHT22;9732;52.498;5.408;2023-04-24T15:47:00;11.60;99.90
19200;DHT22;9732;52.498;5.408;2023-04-24T15:49:28;11.70;99.90
19200;DHT22;9732;52.498;5.408;2023-04-24T15:51:55;11.60;99.90
19200;DHT22;9732;52.498;5.408;2023-04-24T15:54:22;11.50;99.90